Time;durP1;ratioP1;P1;durP2;ratioP2;P2;SDS_P1;SDS_P2;PMS_P1;PMS_P2;Temp;Humidity;BMP_temperature;BMP_pressure;BME280_temperature;BME280_humidity;BME280_pressure;Samples;Min_cycle;Max_cycle;Signal;HPM_P1;HPM_P2
2022/06/22 00:01:03;;;;;;;4.65;1.83;;;;;;;;;;5349306;27;20397;-69
2022/06/22 00:03:34;;;;;;;6.63;2.63;;;;;;;;;;5347953;27;20030;-69
2022/06/22 00:06:05;;;;;;;7.47;2.00;;;;;;;;;;5349065;27;20019;-69
2022/06/22 00:08:38;;;;;;;5.38;1.88;;;;;;;;;;5348733;27;20027;-69
2022/06/22 00:11:14;;;;;;;5.10;2.20;;;;;;;;;;5348097;27;20466;-69
2022/06/22 00:13:48;;;;;;;5.60;2.47;;;;;;;;;;5348606;27;20027;-69
2022/06/22 00:16:22;;;;;;;6.78;2.88;;;;;;;;;;5348210;27;20026;-70
2022/06/22 00:18:54;;;;;;;8.68;3.80;;;;;;;;;;5348336;27;20027;-70
2022/06/22 00:21:34;;;;;;;7.40;3.67;;;;;;;;;;5348387;27;20122;-68
2022/06/22 00:24:24;;;;;;;9.02;4.20;;;;;;;;;;5347771;27;20446;-69
2022/06/22 00:27:13;;;;;;;6.05;4.10;;;;;;;;;;5348881;27;20041;-69
2022/06/22 00:29:45;;;;;;;7.38;4.10;;;;;;;;;;5348518;27;20023;-69
2022/06/22 00:32:24;;;;;;;7.57;4.15;;;;;;;;;;5347601;27;20011;-69
2022/06/22 00:34:55;;;;;;;9.23;3.97;;;;;;;;;;5348535;27;20016;-69
2022/06/22 00:37:29;;;;;;;6.05;4.22;;;;;;;;;;5348125;27;20386;-69
2022/06/22 00:40:01;;;;;;;7.50;4.32;;;;;;;;;;5347637;27;20056;-69
2022/06/22 00:42:40;;;;;;;7.70;4.82;;;;;;;;;;5347971;27;20058;-68
2022/06/22 00:45:17;;;;;;;9.20;5.32;;;;;;;;;;5346491;27;20018;-69
2022/06/22 00:48:04;;;;;;;7.05;4.30;;;;;;;;;;5347522;27;20041;-69
2022/06/22 00:50:37;;;;;;;7.60;4.78;;;;;;;;;;5347877;27;20023;-69
2022/06/22 00:53:12;;;;;;;6.40;4.53;;;;;;;;;;5347133;27;20015;-69
2022/06/22 00:55:49;;;;;;;5.90;4.78;;;;;;;;;;5347632;27;20385;-68
2022/06/22 00:58:25;;;;;;;10.82;5.00;;;;;;;;;;5347412;27;20490;-69
2022/06/22 01:01:23;;;;;;;7.85;4.80;;;;;;;;;;5347132;27;20023;-69
2022/06/22 01:03:58;;;;;;;8.43;5.15;;;;;;;;;;5308281;27;20046;-69
2022/06/22 01:06:35;;;;;;;9.68;5.43;;;;;;;;;;5346674;27;20053;-68
2022/06/22 01:09:14;;;;;;;14.57;5.63;;;;;;;;;;5347651;27;20023;-69
2022/06/22 01:14:44;;;;;;;9.68;4.75;;;;;;;;;;5346982;27;20118;-68
2022/06/22 01:17:32;;;;;;;9.10;5.07;;;;;;;;;;5347436;27;20115;-69
2022/06/22 01:20:06;;;;;;;10.50;6.47;;;;;;;;;;5347499;27;20007;-69
2022/06/22 01:22:51;;;;;;;8.13;5.97;;;;;;;;;;5346171;27;20383;-69
2022/06/22 01:25:34;;;;;;;8.73;5.68;;;;;;;;;;5347089;27;20019;-70
2022/06/22 01:28:05;;;;;;;7.60;5.72;;;;;;;;;;5346641;27;20057;-69
2022/06/22 01:30:38;;;;;;;10.90;5.53;;;;;;;;;;5347071;27;20015;-69
2022/06/22 01:33:24;;;;;;;10.75;5.60;;;;;;;;;;5346969;27;20011;-69
2022/06/22 01:35:58;;;;;;;14.00;6.57;;;;;;;;;;5346653;27;20492;-69
2022/06/22 01:38:30;;;;;;;10.40;5.78;;;;;;;;;;5346732;27;20478;-69
2022/06/22 01:41:01;;;;;;;12.88;6.05;;;;;;;;;;5347014;27;20020;-69
2022/06/22 01:43:36;;;;;;;12.85;6.35;;;;;;;;;;5345799;27;20019;-68
2022/06/22 01:46:11;;;;;;;11.30;6.13;;;;;;;;;;5346928;27;20742;-69
2022/06/22 01:48:46;;;;;;;15.38;8.00;;;;;;;;;;5345979;27;20027;-69
2022/06/22 01:51:21;;;;;;;9.63;6.32;;;;;;;;;;5346842;27;20025;-69
2022/06/22 01:53:56;;;;;;;10.63;7.22;;;;;;;;;;5347070;27;20566;-69
2022/06/22 01:56:27;;;;;;;10.88;7.15;;;;;;;;;;5345503;27;20019;-69
2022/06/22 01:59:04;;;;;;;9.15;6.65;;;;;;;;;;5346613;27;20030;-69
2022/06/22 02:01:55;;;;;;;12.40;7.28;;;;;;;;;;5346304;27;20019;-68
2022/06/22 02:04:33;;;;;;;12.60;7.07;;;;;;;;;;5345304;27;20030;-68
2022/06/22 02:10:23;;;;;;;11.07;7.55;;;;;;;;;;5346581;27;20031;-69
2022/06/22 02:13:13;;;;;;;11.23;7.90;;;;;;;;;;5346651;27;20047;-69
2022/06/22 02:15:49;;;;;;;10.05;7.22;;;;;;;;;;5346451;27;20480;-69
2022/06/22 02:18:24;;;;;;;9.18;7.30;;;;;;;;;;5345075;27;20575;-69
2022/06/22 02:20:57;;;;;;;10.45;7.95;;;;;;;;;;5346474;27;20386;-68
2022/06/22 02:23:33;;;;;;;14.00;7.40;;;;;;;;;;5345571;27;20050;-69
2022/06/22 02:26:20;;;;;;;12.52;7.85;;;;;;;;;;5346176;27;20026;-68
2022/06/22 02:28:51;;;;;;;11.95;8.48;;;;;;;;;;5346665;27;20023;-68
2022/06/22 02:31:22;;;;;;;18.23;8.23;;;;;;;;;;5344820;27;20087;-69
2022/06/22 02:33:55;;;;;;;14.07;8.50;;;;;;;;;;5346404;27;20011;-68
2022/06/22 02:36:30;;;;;;;12.07;8.40;;;;;;;;;;5345821;27;20019;-69
2022/06/22 02:39:02;;;;;;;11.07;8.05;;;;;;;;;;5345207;27;20084;-69
2022/06/22 02:44:31;;;;;;;14.15;8.48;;;;;;;;;;5345367;27;20031;-68
2022/06/22 02:47:22;;;;;;;12.05;8.35;;;;;;;;;;5345087;27;20043;-69
2022/06/22 02:49:58;;;;;;;11.98;8.68;;;;;;;;;;5345537;27;20107;-69
2022/06/22 02:52:40;;;;;;;13.27;8.43;;;;;;;;;;5344257;27;20540;-68
2022/06/22 02:55:13;;;;;;;8.68;6.90;;;;;;;;;;5345492;27;20019;-68
2022/06/22 02:57:44;;;;;;;12.95;8.98;;;;;;;;;;5345284;27;20034;-69
2022/06/22 03:00:17;;;;;;;11.68;8.23;;;;;;;;;;5344494;27;20191;-69
2022/06/22 03:02:50;;;;;;;10.60;7.25;;;;;;;;;;5345226;27;20023;-69
2022/06/22 03:05:22;;;;;;;12.55;8.15;;;;;;;;;;5344617;27;20061;-68
2022/06/22 03:07:56;;;;;;;9.43;8.00;;;;;;;;;;5344823;27;20481;-69
2022/06/22 03:10:31;;;;;;;12.35;8.43;;;;;;;;;;5344132;27;20373;-69
2022/06/22 03:13:02;;;;;;;11.77;8.68;;;;;;;;;;5344174;27;20020;-69
2022/06/22 03:15:35;;;;;;;15.60;9.50;;;;;;;;;;5344957;27;20015;-69
2022/06/22 03:18:08;;;;;;;13.80;9.25;;;;;;;;;;5345100;27;20038;-69
2022/06/22 03:20:45;;;;;;;17.65;9.95;;;;;;;;;;5344372;27;20123;-69
2022/06/22 03:23:19;;;;;;;13.75;9.82;;;;;;;;;;5344935;27;20060;-69
2022/06/22 03:25:54;;;;;;;14.23;8.57;;;;;;;;;;5345289;27;20397;-69
2022/06/22 03:28:29;;;;;;;12.25;8.80;;;;;;;;;;5343971;27;20465;-69
2022/06/22 03:31:02;;;;;;;13.15;9.27;;;;;;;;;;5345061;27;20034;-69
2022/06/22 03:33:39;;;;;;;13.07;10.30;;;;;;;;;;5344611;27;20370;-69
2022/06/22 03:36:18;;;;;;;12.10;9.85;;;;;;;;;;5343825;27;20027;-69
2022/06/22 03:38:54;;;;;;;13.73;9.50;;;;;;;;;;5345154;28;20416;-69
2022/06/22 03:41:27;;;;;;;13.35;9.00;;;;;;;;;;5343638;28;20182;-70
2022/06/22 03:44:20;;;;;;;14.13;9.20;;;;;;;;;;5344978;28;20019;-69
2022/06/22 03:46:56;;;;;;;17.73;9.88;;;;;;;;;;5345137;27;20015;-69
2022/06/22 03:49:31;;;;;;;14.80;10.52;;;;;;;;;;5343589;28;20019;-69
2022/06/22 03:52:22;;;;;;;14.70;9.82;;;;;;;;;;5344766;27;20051;-68
2022/06/22 03:55:02;;;;;;;10.35;9.25;;;;;;;;;;5344777;28;20023;-69
2022/06/22 03:57:36;;;;;;;10.90;8.65;;;;;;;;;;5344473;28;20027;-68
2022/06/22 04:00:10;;;;;;;14.18;10.07;;;;;;;;;;5344574;28;20023;-68
2022/06/22 04:02:41;;;;;;;12.85;10.38;;;;;;;;;;5343709;27;20407;-68
2022/06/22 04:05:17;;;;;;;12.52;9.35;;;;;;;;;;5344320;27;20106;-68
2022/06/22 04:07:49;;;;;;;15.25;11.18;;;;;;;;;;5344578;28;20066;-69
2022/06/22 04:10:33;;;;;;;14.27;10.63;;;;;;;;;;5343339;28;20489;-70
2022/06/22 04:13:06;;;;;;;17.10;11.05;;;;;;;;;;5344776;28;20023;-69
2022/06/22 04:15:41;;;;;;;15.68;11.05;;;;;;;;;;5344597;27;20411;-69
2022/06/22 04:18:15;;;;;;;17.63;11.93;;;;;;;;;;5343889;28;20031;-70
2022/06/22 04:20:51;;;;;;;17.10;11.25;;;;;;;;;;5346612;27;20019;-69
2022/06/22 04:23:43;;;;;;;12.45;10.98;;;;;;;;;;5347402;27;20364;-69
2022/06/22 04:26:30;;;;;;;11.85;10.75;;;;;;;;;;5348479;27;20022;-69
2022/06/22 04:29:04;;;;;;;16.17;10.95;;;;;;;;;;5348499;27;20461;-69
2022/06/22 04:31:37;;;;;;;16.90;12.25;;;;;;;;;;5347731;27;20021;-69
2022/06/22 04:34:12;;;;;;;14.30;10.88;;;;;;;;;;5348134;27;20027;-69
2022/06/22 04:36:52;;;;;;;12.80;11.07;;;;;;;;;;5348215;27;20026;-69
2022/06/22 04:39:35;;;;;;;13.27;10.20;;;;;;;;;;5346891;27;20047;-69
2022/06/22 04:42:07;;;;;;;15.02;11.05;;;;;;;;;;5347982;27;20132;-69
2022/06/22 04:44:47;;;;;;;16.90;10.35;;;;;;;;;;5347099;27;20023;-69
2022/06/22 04:47:20;;;;;;;18.73;12.05;;;;;;;;;;5347690;27;20355;-69
2022/06/22 04:49:53;;;;;;;14.45;11.35;;;;;;;;;;5348072;27;20071;-70
2022/06/22 04:52:29;;;;;;;16.35;11.32;;;;;;;;;;5346965;27;20016;-69
2022/06/22 04:55:01;;;;;;;17.00;11.77;;;;;;;;;;5348257;27;20026;-70
2022/06/22 04:57:38;;;;;;;20.48;11.40;;;;;;;;;;5347337;27;20035;-70
2022/06/22 05:00:20;;;;;;;18.73;10.57;;;;;;;;;;5346980;27;20053;-69
2022/06/22 05:03:06;;;;;;;12.50;10.85;;;;;;;;;;5348015;27;20028;-69
2022/06/22 05:05:38;;;;;;;13.60;11.70;;;;;;;;;;5346663;27;20049;-69
2022/06/22 05:08:17;;;;;;;12.95;10.02;;;;;;;;;;5347625;27;20197;-69
2022/06/22 05:10:57;;;;;;;16.88;10.48;;;;;;;;;;5347555;27;20047;-69
2022/06/22 05:13:38;;;;;;;13.60;11.10;;;;;;;;;;5346321;27;20021;-69
2022/06/22 05:16:11;;;;;;;15.93;11.30;;;;;;;;;;5347190;27;20485;-69
2022/06/22 05:18:43;;;;;;;17.23;11.43;;;;;;;;;;5347322;27;20256;-69
2022/06/22 05:21:18;;;;;;;15.63;11.07;;;;;;;;;;5346046;27;20107;-69
2022/06/22 05:23:51;;;;;;;21.23;11.77;;;;;;;;;;5347449;27;20424;-69
2022/06/22 05:26:24;;;;;;;14.68;11.20;;;;;;;;;;5346723;27;20498;-69
2022/06/22 05:29:10;;;;;;;18.20;11.98;;;;;;;;;;5346997;27;20488;-69
2022/06/22 05:31:45;;;;;;;14.95;11.32;;;;;;;;;;5346582;27;20023;-69
2022/06/22 05:34:19;;;;;;;14.98;11.57;;;;;;;;;;5346075;27;20011;-69
2022/06/22 05:36:57;;;;;;;16.92;11.80;;;;;;;;;;5347178;27;20044;-69
2022/06/22 05:39:28;;;;;;;12.23;11.03;;;;;;;;;;5346908;27;20027;-69
2022/06/22 05:42:00;;;;;;;13.70;11.65;;;;;;;;;;5346712;27;20023;-69
2022/06/22 05:44:31;;;;;;;13.60;12.15;;;;;;;;;;5346754;27;20038;-69
2022/06/22 05:47:02;;;;;;;15.70;10.88;;;;;;;;;;5346971;27;20022;-69
2022/06/22 05:50:00;;;;;;;14.23;10.98;;;;;;;;;;5345753;27;20026;-69
2022/06/22 05:52:39;;;;;;;15.30;11.38;;;;;;;;;;5341369;27;20034;-69
2022/06/22 05:55:28;;;;;;;15.35;11.63;;;;;;;;;;5346155;27;20405;-69
2022/06/22 05:58:02;;;;;;;13.85;10.30;;;;;;;;;;5347019;27;20118;-69
2022/06/22 06:00:47;;;;;;;11.20;10.18;;;;;;;;;;5346602;27;20040;-69
2022/06/22 06:03:18;;;;;;;12.68;10.38;;;;;;;;;;5345450;27;20359;-69
2022/06/22 06:05:51;;;;;;;16.23;9.95;;;;;;;;;;5346852;27;20022;-69
2022/06/22 06:08:24;;;;;;;12.88;9.93;;;;;;;;;;5346241;27;20416;-69
2022/06/22 06:10:56;;;;;;;11.55;10.25;;;;;;;;;;5345803;27;20016;-69
2022/06/22 06:13:38;;;;;;;12.77;10.02;;;;;;;;;;5346041;27;20115;-70
2022/06/22 06:16:14;;;;;;;11.35;9.05;;;;;;;;;;5345481;27;20020;-70
2022/06/22 06:18:46;;;;;;;11.07;10.00;;;;;;;;;;5346100;27;20031;-69
2022/06/22 06:21:19;;;;;;;13.48;9.52;;;;;;;;;;5346325;27;20476;-69
2022/06/22 06:23:56;;;;;;;13.65;9.55;;;;;;;;;;5345832;27;20027;-69
2022/06/22 06:29:33;;;;;;;12.35;9.80;;;;;;;;;;5346099;27;20031;-69
2022/06/22 06:32:22;;;;;;;16.40;10.15;;;;;;;;;;5345382;27;20015;-69
2022/06/22 06:35:01;;;;;;;15.43;10.05;;;;;;;;;;5346457;27;20019;-69
2022/06/22 06:37:52;;;;;;;13.23;9.95;;;;;;;;;;5344866;27;20019;-69
2022/06/22 06:40:45;;;;;;;12.20;10.27;;;;;;;;;;5344680;27;20508;-69
2022/06/22 06:43:25;;;;;;;18.45;10.60;;;;;;;;;;5345365;27;20015;-69
2022/06/22 06:45:58;;;;;;;11.65;9.73;;;;;;;;;;5345149;27;20095;-69
2022/06/22 06:48:31;;;;;;;13.60;9.52;;;;;;;;;;5345788;27;20015;-69
2022/06/22 06:51:04;;;;;;;12.50;10.40;;;;;;;;;;5345130;27;20015;-69
2022/06/22 06:53:41;;;;;;;12.50;9.68;;;;;;;;;;5345662;27;20361;-70
2022/06/22 06:56:31;;;;;;;11.90;9.02;;;;;;;;;;5345632;27;20048;-70
2022/06/22 06:59:03;;;;;;;12.80;9.98;;;;;;;;;;5344758;27;20027;-70
2022/06/22 07:01:36;;;;;;;11.73;9.52;;;;;;;;;;5345591;27;20047;-69
2022/06/22 07:04:12;;;;;;;13.13;10.63;;;;;;;;;;5345417;27;20026;-69
2022/06/22 07:06:44;;;;;;;11.95;9.45;;;;;;;;;;5344662;27;20415;-70
2022/06/22 07:09:17;;;;;;;13.07;9.63;;;;;;;;;;5345254;27;20023;-70
2022/06/22 07:11:51;;;;;;;16.10;9.70;;;;;;;;;;5345550;27;20018;-69
2022/06/22 07:14:27;;;;;;;13.43;10.25;;;;;;;;;;5344109;27;20068;-70
2022/06/22 07:17:02;;;;;;;13.98;9.30;;;;;;;;;;5345495;27;20018;-70
2022/06/22 07:19:42;;;;;;;14.50;9.35;;;;;;;;;;5344119;27;20033;-70
2022/06/22 07:22:13;;;;;;;12.50;9.90;;;;;;;;;;5345225;27;20545;-70
2022/06/22 07:24:48;;;;;;;11.83;7.53;;;;;;;;;;5345344;27;20027;-70
2022/06/22 07:27:19;;;;;;;10.73;7.90;;;;;;;;;;5344091;27;20346;-70
2022/06/22 07:29:56;;;;;;;12.55;8.27;;;;;;;;;;5345743;27;20015;-70
2022/06/22 07:32:39;;;;;;;12.40;8.82;;;;;;;;;;5344799;27;20008;-69
2022/06/22 07:35:13;;;;;;;15.23;8.15;;;;;;;;;;5344003;28;20431;-69
2022/06/22 07:38:05;;;;;;;12.07;7.70;;;;;;;;;;5344813;28;20061;-69
2022/06/22 07:40:38;;;;;;;11.60;8.27;;;;;;;;;;5292100;28;20035;-70
2022/06/22 07:43:10;;;;;;;14.30;8.27;;;;;;;;;;5345039;27;20034;-69
2022/06/22 07:45:41;;;;;;;10.68;7.57;;;;;;;;;;5345050;28;20015;-69
2022/06/22 07:48:16;;;;;;;14.05;7.03;;;;;;;;;;5344173;27;20023;-69
2022/06/22 07:50:50;;;;;;;12.35;7.50;;;;;;;;;;5341111;28;20272;-71
2022/06/22 07:53:48;;;;;;;14.27;8.13;;;;;;;;;;5344448;28;20014;-69
2022/06/22 07:56:19;;;;;;;13.10;7.68;;;;;;;;;;5341331;27;20065;-70
2022/06/22 07:59:11;;;;;;;11.50;6.88;;;;;;;;;;5349526;27;20035;-70
2022/06/22 08:01:44;;;;;;;7.80;6.85;;;;;;;;;;5348587;27;20023;-71
2022/06/22 08:04:15;;;;;;;9.48;6.43;;;;;;;;;;5349148;27;20528;-70
2022/06/22 08:06:53;;;;;;;7.20;5.80;;;;;;;;;;5349116;27;20061;-71
2022/06/22 08:09:28;;;;;;;12.15;7.35;;;;;;;;;;5347814;27;20023;-70
2022/06/22 08:12:20;;;;;;;19.75;8.05;;;;;;;;;;5349250;27;20054;-71
2022/06/22 08:14:53;;;;;;;11.52;8.43;;;;;;;;;;5348344;27;20062;-69
2022/06/22 08:17:30;;;;;;;14.23;8.82;;;;;;;;;;5347510;27;20027;-71
2022/06/22 08:20:02;;;;;;;12.05;8.63;;;;;;;;;;5348608;27;20102;-70
2022/06/22 08:22:33;;;;;;;10.52;8.32;;;;;;;;;;5347706;27;20437;-69
2022/06/22 08:25:06;;;;;;;10.68;7.65;;;;;;;;;;5348922;27;20022;-70
2022/06/22 08:27:37;;;;;;;12.43;7.78;;;;;;;;;;5348657;27;20034;-69
2022/06/22 08:30:09;;;;;;;14.60;7.40;;;;;;;;;;5347674;27;20106;-70
2022/06/22 08:32:44;;;;;;;8.45;7.55;;;;;;;;;;5348641;27;20019;-69
2022/06/22 08:35:26;;;;;;;12.20;6.85;;;;;;;;;;5348247;27;20083;-69
2022/06/22 08:38:08;;;;;;;10.00;5.75;;;;;;;;;;5347818;27;20034;-69
2022/06/22 08:40:53;;;;;;;8.80;3.75;;;;;;;;;;5348724;27;20072;-70
2022/06/22 08:43:28;;;;;;;6.47;3.70;;;;;;;;;;5347040;27;20026;-70
2022/06/22 08:46:17;;;;;;;5.60;2.72;;;;;;;;;;5348625;27;20135;-70
2022/06/22 08:48:49;;;;;;;6.07;3.08;;;;;;;;;;5348006;27;20355;-69
2022/06/22 08:51:38;;;;;;;5.30;2.55;;;;;;;;;;5347010;27;20039;-70
2022/06/22 08:54:28;;;;;;;6.20;2.22;;;;;;;;;;5348082;27;20119;-70
2022/06/22 08:56:59;;;;;;;5.35;1.85;;;;;;;;;;5348322;27;20031;-71
2022/06/22 08:59:34;;;;;;;5.28;1.67;;;;;;;;;;5346748;27;20043;-71
2022/06/22 09:02:05;;;;;;;3.95;0.90;;;;;;;;;;5347906;27;20023;-71
2022/06/22 09:04:42;;;;;;;2.78;0.88;;;;;;;;;;5347036;27;20019;-70
2022/06/22 09:07:24;;;;;;;6.45;1.42;;;;;;;;;;5346745;27;20034;-71
2022/06/22 09:10:14;;;;;;;6.47;1.20;;;;;;;;;;5348429;27;20023;-71
2022/06/22 09:13:02;;;;;;;3.80;1.00;;;;;;;;;;5347065;27;20027;-71
2022/06/22 09:15:33;;;;;;;;;;;;;;;;;;5348037;27;20027;-71
2022/06/22 09:18:25;;;;;;;7.45;1.05;;;;;;;;;;5347712;27;19964;-70
2022/06/22 09:20:56;;;;;;;3.95;0.90;;;;;;;;;;5347046;27;20025;-72
2022/06/22 09:23:53;;;;;;;4.75;0.80;;;;;;;;;;5347011;27;20046;-71
2022/06/22 09:26:27;;;;;;;7.90;1.05;;;;;;;;;;5346557;27;20480;-70
2022/06/22 09:29:00;;;;;;;3.60;0.90;;;;;;;;;;5347641;27;20023;-70
2022/06/22 09:32:01;;;;;;;6.47;0.90;;;;;;;;;;5347322;27;20068;-70
2022/06/22 09:34:44;;;;;;;2.78;0.90;;;;;;;;;;5323324;27;20031;-70
2022/06/22 09:37:18;;;;;;;3.80;0.70;;;;;;;;;;5346965;27;20023;-70
2022/06/22 09:39:55;;;;;;;4.57;1.02;;;;;;;;;;5346886;27;20034;-70
2022/06/22 09:42:26;;;;;;;3.33;0.88;;;;;;;;;;5346901;27;20015;-70
2022/06/22 09:44:57;;;;;;;4.95;1.40;;;;;;;;;;5347329;27;20098;-70
2022/06/22 09:47:44;;;;;;;6.17;1.03;;;;;;;;;;5345998;27;20022;-70
2022/06/22 09:50:24;;;;;;;5.75;0.75;;;;;;;;;;5346788;27;20061;-70
2022/06/22 09:53:16;;;;;;;4.40;0.70;;;;;;;;;;5347228;27;20068;-70
2022/06/22 09:56:23;;;;;;;5.82;0.75;;;;;;;;;;5345397;27;20069;-70
2022/06/22 09:59:09;;;;;;;3.65;0.55;;;;;;;;;;5239438;28;20048;-71
2022/06/22 10:01:52;;;;;;;3.97;0.60;;;;;;;;;;5338902;27;20035;-70
2022/06/22 10:04:30;;;;;;;4.88;0.60;;;;;;;;;;5346534;27;20431;-70
2022/06/22 10:07:04;;;;;;;4.63;0.60;;;;;;;;;;5346483;27;20033;-71
2022/06/22 10:09:55;;;;;;;4.75;0.80;;;;;;;;;;5345630;27;20098;-70
2022/06/22 10:12:46;;;;;;;3.30;0.70;;;;;;;;;;5328243;27;20527;-70
2022/06/22 10:15:28;;;;;;;3.42;0.80;;;;;;;;;;5345744;27;20023;-70
2022/06/22 10:18:02;;;;;;;4.55;0.52;;;;;;;;;;5346435;27;20047;-70
2022/06/22 10:20:33;;;;;;;3.17;0.40;;;;;;;;;;5346043;27;20030;-70
2022/06/22 10:23:05;;;;;;;3.35;0.70;;;;;;;;;;5344588;27;20122;-71
2022/06/22 10:25:36;;;;;;;4.45;1.05;;;;;;;;;;5346425;27;20055;-72
2022/06/22 10:28:18;;;;;;;3.00;0.60;;;;;;;;;;5346246;27;20019;-71
2022/06/22 10:31:11;;;;;;;4.68;0.50;;;;;;;;;;5345487;27;20071;-71
2022/06/22 10:33:45;;;;;;;4.20;1.00;;;;;;;;;;5345995;27;20060;-71
2022/06/22 10:36:31;;;;;;;4.72;0.90;;;;;;;;;;5345226;27;20040;-71
2022/06/22 10:39:41;;;;;;;5.03;0.60;;;;;;;;;;5345869;27;20130;-71
2022/06/22 10:45:40;;;;;;;3.58;0.60;;;;;;;;;;5237642;28;20436;-71
2022/06/22 10:48:27;;;;;;;9.65;0.70;;;;;;;;;;5338564;27;20023;-71
2022/06/22 10:51:13;;;;;;;4.57;0.82;;;;;;;;;;5345569;27;20022;-70
2022/06/22 10:54:02;;;;;;;5.45;0.70;;;;;;;;;;5345799;27;20023;-71
2022/06/22 10:56:47;;;;;;;2.95;0.60;;;;;;;;;;5345766;27;20389;-70
2022/06/22 10:59:24;;;;;;;3.70;0.90;;;;;;;;;;5344526;27;20035;-72
2022/06/22 11:01:55;;;;;;;6.72;0.82;;;;;;;;;;5341467;27;20142;-69
2022/06/22 11:04:30;;;;;;;5.50;0.70;;;;;;;;;;5344075;27;20448;-69
2022/06/22 11:07:15;;;;;;;6.00;0.70;;;;;;;;;;5345271;27;20024;-71
2022/06/22 11:10:05;;;;;;;5.47;0.70;;;;;;;;;;5344309;27;20019;-72
2022/06/22 11:12:56;;;;;;;8.88;0.65;;;;;;;;;;5344292;27;20023;-70
2022/06/22 11:15:32;;;;;;;4.30;0.60;;;;;;;;;;5345224;27;20035;-72
2022/06/22 11:18:28;;;;;;;5.05;0.43;;;;;;;;;;5345248;27;20080;-71
2022/06/22 11:21:02;;;;;;;4.47;0.65;;;;;;;;;;5345560;27;20022;-68
2022/06/22 11:23:33;;;;;;;4.60;0.60;;;;;;;;;;5345249;27;20446;-70
2022/06/22 11:32:14;;;;;;;2.72;0.60;;;;;;;;;;5345179;27;20449;-69
2022/06/22 11:35:11;;;;;;;4.88;0.63;;;;;;;;;;5345070;27;20027;-70
2022/06/22 11:37:49;;;;;;;3.33;0.63;;;;;;;;;;5305456;28;20043;-70
2022/06/22 11:40:37;;;;;;;4.53;0.70;;;;;;;;;;5344351;28;20428;-70
2022/06/22 11:43:23;;;;;;;4.50;0.60;;;;;;;;;;5345264;28;20427;-70
2022/06/22 11:46:07;;;;;;;3.10;0.70;;;;;;;;;;5345129;28;20012;-69
2022/06/22 11:48:56;;;;;;;5.53;0.50;;;;;;;;;;5344327;28;20516;-70
2022/06/22 11:51:27;;;;;;;;;;;;;;;;;;5345094;28;20016;-70
2022/06/22 11:54:04;;;;;;;5.15;0.50;;;;;;;;;;5344471;28;19926;-70
2022/06/22 11:56:41;;;;;;;6.53;0.60;;;;;;;;;;5345025;28;20112;-70
2022/06/22 11:59:21;;;;;;;4.53;0.60;;;;;;;;;;5344910;28;20034;-68
2022/06/22 12:01:53;;;;;;;3.90;0.57;;;;;;;;;;5344245;28;20054;-68
2022/06/22 12:04:45;;;;;;;4.10;0.60;;;;;;;;;;5344377;28;20580;-68
2022/06/22 12:07:28;;;;;;;8.10;0.60;;;;;;;;;;5345012;28;20365;-68
2022/06/22 12:10:24;;;;;;;2.63;0.50;;;;;;;;;;5345613;28;20031;-68
2022/06/22 12:13:11;;;;;;;5.93;0.50;;;;;;;;;;5344956;28;20019;-69
2022/06/22 12:16:09;;;;;;;3.00;0.50;;;;;;;;;;5343997;28;20023;-68
2022/06/22 12:18:50;;;;;;;2.95;0.40;;;;;;;;;;5305540;28;20035;-68
2022/06/22 12:21:33;;;;;;;4.28;0.52;;;;;;;;;;5344143;28;22112;-71
2022/06/22 12:24:07;;;;;;;3.10;0.50;;;;;;;;;;5344818;28;20056;-68
2022/06/22 12:26:57;;;;;;;3.17;0.43;;;;;;;;;;5344683;28;20030;-68
2022/06/22 12:29:43;;;;;;;6.05;0.57;;;;;;;;;;5343449;28;20031;-69
2022/06/22 12:32:24;;;;;;;3.03;0.40;;;;;;;;;;5344497;28;20030;-69
2022/06/22 12:35:04;;;;;;;3.28;0.35;;;;;;;;;;5344916;28;20098;-69
2022/06/22 12:37:50;;;;;;;2.13;0.20;;;;;;;;;;5343950;28;20382;-69
2022/06/22 12:40:26;;;;;;;2.28;0.40;;;;;;;;;;5344208;28;20031;-69
2022/06/22 12:43:32;;;;;;;5.35;0.30;;;;;;;;;;5346166;27;20019;-69
2022/06/22 12:46:10;;;;;;;3.88;0.50;;;;;;;;;;5240619;28;20108;-69
2022/06/22 12:49:05;;;;;;;4.50;0.40;;;;;;;;;;5334692;27;20123;-68
2022/06/22 12:51:42;;;;;;;3.92;0.50;;;;;;;;;;5347259;27;20034;-69
2022/06/22 12:54:17;;;;;;;2.90;0.30;;;;;;;;;;5348155;27;20488;-69
2022/06/22 12:56:51;;;;;;;1.35;0.30;;;;;;;;;;5347596;27;20124;-69
2022/06/22 12:59:28;;;;;;;1.08;0.30;;;;;;;;;;5347827;27;20067;-70
2022/06/22 13:02:01;;;;;;;3.83;0.70;;;;;;;;;;5348460;27;20573;-69
2022/06/22 13:04:34;;;;;;;1.55;0.30;;;;;;;;;;5347084;27;20034;-70
2022/06/22 13:07:10;;;;;;;3.53;0.40;;;;;;;;;;5347718;27;20462;-69
2022/06/22 13:09:42;;;;;;;3.20;0.40;;;;;;;;;;5347696;27;20106;-69
2022/06/22 13:12:25;;;;;;;6.60;0.50;;;;;;;;;;5347244;27;20530;-69
2022/06/22 13:15:02;;;;;;;2.17;0.30;;;;;;;;;;5348023;27;20019;-70
2022/06/22 13:17:48;;;;;;;3.10;0.60;;;;;;;;;;5347371;27;20056;-69
2022/06/22 13:20:27;;;;;;;4.22;0.35;;;;;;;;;;5347275;27;20023;-69
2022/06/22 13:22:58;;;;;;;;;;;;;;;;;;5347501;27;20043;-72
2022/06/22 13:25:56;;;;;;;3.95;0.30;;;;;;;;;;5346487;27;19910;-71
2022/06/22 13:28:43;;;;;;;5.32;0.80;;;;;;;;;;5342335;27;20039;-71
2022/06/22 13:31:20;;;;;;;2.38;0.40;;;;;;;;;;5347394;27;20035;-71
2022/06/22 13:33:56;;;;;;;3.20;0.40;;;;;;;;;;5346746;27;20378;-71
2022/06/22 13:36:46;;;;;;;2.40;0.30;;;;;;;;;;5346977;27;20061;-71
2022/06/22 13:39:28;;;;;;;3.65;0.43;;;;;;;;;;5346196;27;20041;-71
2022/06/22 13:42:16;;;;;;;3.88;0.40;;;;;;;;;;5347363;27;20063;-71
2022/06/22 13:44:57;;;;;;;2.15;0.30;;;;;;;;;;5347372;27;20045;-71
2022/06/22 13:47:42;;;;;;;3.50;0.30;;;;;;;;;;5346129;27;20480;-72
2022/06/22 13:50:31;;;;;;;4.22;0.45;;;;;;;;;;5346930;27;20107;-72
2022/06/22 13:53:12;;;;;;;3.15;0.73;;;;;;;;;;5345833;27;20476;-72
2022/06/22 13:56:02;;;;;;;4.13;0.20;;;;;;;;;;5346875;27;20019;-72
2022/06/22 13:58:42;;;;;;;1.50;0.43;;;;;;;;;;5346322;27;20061;-72
2022/06/22 14:01:19;;;;;;;3.28;0.40;;;;;;;;;;5345849;27;20073;-71
2022/06/22 14:04:08;;;;;;;2.22;0.30;;;;;;;;;;5347151;27;20019;-71
2022/06/22 14:06:48;;;;;;;1.98;0.30;;;;;;;;;;5346634;27;20035;-69
2022/06/22 14:09:23;;;;;;;2.05;0.40;;;;;;;;;;5345264;27;20015;-70
2022/06/22 14:12:07;;;;;;;4.78;0.40;;;;;;;;;;5347115;27;20476;-68
2022/06/22 14:15:02;;;;;;;2.45;0.30;;;;;;;;;;5345879;27;20048;-68
2022/06/22 14:17:37;;;;;;;2.22;0.35;;;;;;;;;;5332463;27;20035;-70
2022/06/22 14:20:20;;;;;;;1.42;0.30;;;;;;;;;;5346294;27;20019;-71
2022/06/22 14:22:53;;;;;;;2.03;0.30;;;;;;;;;;5345533;27;20054;-71
2022/06/22 14:25:36;;;;;;;2.58;0.38;;;;;;;;;;5345526;27;20042;-70
2022/06/22 14:28:11;;;;;;;3.03;0.57;;;;;;;;;;5345160;27;20015;-71
2022/06/22 14:30:49;;;;;;;2.40;0.35;;;;;;;;;;5346387;27;20110;-68
2022/06/22 14:33:30;;;;;;;4.60;0.47;;;;;;;;;;5345869;27;20029;-68
2022/06/22 14:36:18;;;;;;;3.00;0.30;;;;;;;;;;5345408;27;20007;-70
2022/06/22 14:38:51;;;;;;;2.35;0.38;;;;;;;;;;5346280;27;20069;-71
2022/06/22 14:41:25;;;;;;;2.50;0.40;;;;;;;;;;5345618;27;20019;-71
2022/06/22 14:44:06;;;;;;;2.65;0.50;;;;;;;;;;5345435;27;20023;-70
2022/06/22 14:46:37;;;;;;;5.55;0.30;;;;;;;;;;5345903;27;20019;-68
2022/06/22 14:49:14;;;;;;;3.05;0.30;;;;;;;;;;5344882;27;20034;-71
2022/06/22 14:51:52;;;;;;;4.88;0.40;;;;;;;;;;5345684;27;20477;-70
2022/06/22 14:54:23;;;;;;;3.92;0.30;;;;;;;;;;5345087;27;20023;-72
2022/06/22 14:57:00;;;;;;;2.03;0.30;;;;;;;;;;5344858;27;20469;-72
2022/06/22 14:59:41;;;;;;;2.97;0.47;;;;;;;;;;5344876;27;20027;-72
2022/06/22 15:02:12;;;;;;;3.72;0.40;;;;;;;;;;5345301;27;20027;-69
2022/06/22 15:04:47;;;;;;;1.98;0.38;;;;;;;;;;5343831;27;20023;-72
2022/06/22 15:07:33;;;;;;;1.83;0.30;;;;;;;;;;5344960;27;20039;-72
2022/06/22 15:10:10;;;;;;;2.47;0.38;;;;;;;;;;5345357;27;20094;-72
2022/06/22 15:12:56;;;;;;;5.90;0.40;;;;;;;;;;5344896;27;20019;-70
2022/06/22 15:15:27;;;;;;;3.78;0.30;;;;;;;;;;5345178;27;20106;-72
2022/06/22 15:18:05;;;;;;;1.83;0.33;;;;;;;;;;5344705;27;20106;-72
2022/06/22 15:20:49;;;;;;;2.28;0.30;;;;;;;;;;5345056;27;20264;-69
2022/06/22 15:23:29;;;;;;;2.92;0.30;;;;;;;;;;5344626;27;20093;-71
2022/06/22 15:26:11;;;;;;;3.67;0.30;;;;;;;;;;5344740;27;20442;-68
2022/06/22 15:28:47;;;;;;;3.85;0.32;;;;;;;;;;5344951;27;20080;-70
2022/06/22 15:31:24;;;;;;;6.55;0.30;;;;;;;;;;5344344;27;20015;-69
2022/06/22 15:34:06;;;;;;;2.78;0.30;;;;;;;;;;5345526;27;20018;-69
2022/06/22 15:36:40;;;;;;;5.43;0.30;;;;;;;;;;5345076;27;20059;-69
2022/06/22 15:39:27;;;;;;;2.88;0.30;;;;;;;;;;5344017;28;20046;-69
2022/06/22 15:42:07;;;;;;;1.88;0.30;;;;;;;;;;5345443;28;20102;-71
2022/06/22 15:44:38;;;;;;;2.67;0.40;;;;;;;;;;5344962;28;20107;-70
2022/06/22 15:47:12;;;;;;;2.45;0.30;;;;;;;;;;5338978;28;20213;-69
2022/06/22 15:50:02;;;;;;;1.77;0.30;;;;;;;;;;5344850;28;20086;-71
2022/06/22 15:52:39;;;;;;;4.22;0.40;;;;;;;;;;5343397;28;20023;-70
2022/06/22 15:55:13;;;;;;;3.85;0.30;;;;;;;;;;5344993;28;20043;-70
2022/06/22 15:57:50;;;;;;;2.58;0.30;;;;;;;;;;5344257;28;20019;-70
2022/06/22 16:00:36;;;;;;;5.65;0.40;;;;;;;;;;5343338;28;20027;-71
2022/06/22 16:03:29;;;;;;;1.80;0.20;;;;;;;;;;5344554;28;20026;-72
2022/06/22 16:06:06;;;;;;;2.35;0.30;;;;;;;;;;5344729;28;20094;-71